sensor_id;sensor_type;location;lat;lon;timestamp;pressure;altitude;pressure_sealevel;temperature;humidity
71306;BME280;59097;46.858;18.632;2023-03-04T00:02:33;100633.87;;;1.14;100.00
71306;BME280;59097;46.858;18.632;2023-03-04T00:04:59;100613.13;;;1.01;100.00
71306;BME280;59097;46.858;18.632;2023-03-04T00:07:25;100621.91;;;1.00;100.00
71306;BME280;59097;46.858;18.632;2023-03-04T00:09:52;100630.81;;;0.98;100.00
71306;BME280;59097;46.858;18.632;2023-03-04T00:12:18;100630.72;;;0.99;100.00
71306;BME280;59097;46.858;18.632;2023-03-04T00:14:44;100621.66;;;1.03;100.00
71306;BME280;59097;46.858;18.632;2023-03-04T00:17:16;100621.44;;;1.59;100.00
71306;BME280;59097;46.858;18.632;2023-03-04T00:19:46;100621.44;;;1.59;100.00
71306;BME280;59097;46.858;18.632;2023-03-04T00:22:14;100626.44;;;0.98;100.00
71306;BME280;59097;46.858;18.632;2023-03-04T00:24:42;100621.34;;;0.97;100.00
71306;BME280;59097;46.858;18.632;2023-03-04T00:27:10;100631.44;;;0.90;100.00
71306;BME280;59097;46.858;18.632;2023-03-04T00:29:38;100624.56;;;0.89;100.00
71306;BME280;59097;46.858;18.632;2023-03-04T00:32:06;100621.13;;;0.89;100.00
71306;BME280;59097;46.858;18.632;2023-03-04T00:34:35;100621.97;;;0.78;100.00
71306;BME280;59097;46.858;18.632;2023-03-04T00:37:12;100621.84;;;0.80;100.00
71306;BME280;59097;46.858;18.632;2023-03-04T00:40:10;100620.19;;;0.79;100.00
71306;BME280;59097;46.858;18.632;2023-03-04T00:42:52;100615.12;;;1.09;100.00
71306;BME280;59097;46.858;18.632;2023-03-04T00:45:18;100607.88;;;1.12;100.00
71306;BME280;59097;46.858;18.632;2023-03-04T00:47:44;100611.69;;;1.08;100.00
71306;BME280;59097;46.858;18.632;2023-03-04T00:50:11;100615.59;;;1.14;100.00
71306;BME280;59097;46.858;18.632;2023-03-04T00:52:37;100606.59;;;1.07;100.00
71306;BME280;59097;46.858;18.632;2023-03-04T00:55:09;100602.50;;;1.46;100.00
71306;BME280;59097;46.858;18.632;2023-03-04T00:57:38;100602.50;;;1.46;100.00
71306;BME280;59097;46.858;18.632;2023-03-04T01:00:07;100601.34;;;0.64;100.00
71306;BME280;59097;46.858;18.632;2023-03-04T01:02:35;100595.19;;;0.65;100.00
71306;BME280;59097;46.858;18.632;2023-03-04T01:05:04;100600.16;;;0.57;100.00
71306;BME280;59097;46.858;18.632;2023-03-04T01:07:32;100588.78;;;0.58;100.00
71306;BME280;59097;46.858;18.632;2023-03-04T01:10:00;100593.56;;;0.53;100.00
71306;BME280;59097;46.858;18.632;2023-03-04T01:12:29;100592.13;;;0.49;100.00
71306;BME280;59097;46.858;18.632;2023-03-04T01:14:58;100585.50;;;0.45;100.00
71306;BME280;59097;46.858;18.632;2023-03-04T01:17:27;100578.28;;;0.37;100.00
71306;BME280;59097;46.858;18.632;2023-03-04T01:20:09;100584.19;;;0.39;100.00
71306;BME280;59097;46.858;18.632;2023-03-04T01:22:51;100579.69;;;0.30;100.00
71306;BME280;59097;46.858;18.632;2023-03-04T01:25:17;100589.41;;;0.28;100.00
71306;BME280;59097;46.858;18.632;2023-03-04T01:27:43;100586.31;;;0.23;100.00
71306;BME280;59097;46.858;18.632;2023-03-04T01:30:10;100581.00;;;0.14;100.00
71306;BME280;59097;46.858;18.632;2023-03-04T01:32:37;100563.94;;;-0.02;100.00
71306;BME280;59097;46.858;18.632;2023-03-04T01:35:10;100579.63;;;0.75;100.00
71306;BME280;59097;46.858;18.632;2023-03-04T01:37:39;100579.63;;;0.75;100.00
71306;BME280;59097;46.858;18.632;2023-03-04T01:40:08;100581.25;;;-0.01;100.00
71306;BME280;59097;46.858;18.632;2023-03-04T01:42:38;100550.88;;;-0.13;100.00
71306;BME280;59097;46.858;18.632;2023-03-04T01:45:12;100566.06;;;0.05;100.00
71306;BME280;59097;46.858;18.632;2023-03-04T01:47:44;100575.53;;;0.06;100.00
71306;BME280;59097;46.858;18.632;2023-03-04T01:50:22;100571.28;;;0.05;100.00
71306;BME280;59097;46.858;18.632;2023-03-04T01:52:54;100552.31;;;-0.09;100.00
71306;BME280;59097;46.858;18.632;2023-03-04T01:55:37;100545.31;;;-0.19;100.00
71306;BME280;59097;46.858;18.632;2023-03-04T01:58:20;100550.66;;;-0.10;100.00
71306;BME280;59097;46.858;18.632;2023-03-04T02:00:47;100528.00;;;-0.20;100.00
71306;BME280;59097;46.858;18.632;2023-03-04T02:03:15;100559.06;;;-0.06;100.00
71306;BME280;59097;46.858;18.632;2023-03-04T02:05:47;100560.50;;;-0.02;100.00
71306;BME280;59097;46.858;18.632;2023-03-04T02:08:15;100561.09;;;0.02;100.00
71306;BME280;59097;46.858;18.632;2023-03-04T02:10:50;100552.81;;;0.73;100.00
71306;BME280;59097;46.858;18.632;2023-03-04T02:13:19;100552.81;;;0.73;100.00
71306;BME280;59097;46.858;18.632;2023-03-04T02:15:48;100556.81;;;0.12;100.00
71306;BME280;59097;46.858;18.632;2023-03-04T02:18:21;100555.75;;;0.03;100.00
71306;BME280;59097;46.858;18.632;2023-03-04T02:20:52;100551.28;;;0.05;100.00
71306;BME280;59097;46.858;18.632;2023-03-04T02:23:36;100541.78;;;0.15;100.00
71306;BME280;59097;46.858;18.632;2023-03-04T02:26:16;100546.72;;;0.29;100.00
71306;BME280;59097;46.858;18.632;2023-03-04T02:28:47;100513.66;;;0.30;100.00
71306;BME280;59097;46.858;18.632;2023-03-04T02:34:21;100529.81;;;0.67;100.00
71306;BME280;59097;46.858;18.632;2023-03-04T02:36:50;100523.56;;;0.58;100.00
71306;BME280;59097;46.858;18.632;2023-03-04T02:41:50;100517.06;;;0.41;100.00
71306;BME280;59097;46.858;18.632;2023-03-04T02:44:31;100510.78;;;0.87;100.00
71306;BME280;59097;46.858;18.632;2023-03-04T02:47:04;100510.78;;;0.87;100.00
71306;BME280;59097;46.858;18.632;2023-03-04T02:49:34;100518.41;;;0.14;100.00
71306;BME280;59097;46.858;18.632;2023-03-04T02:52:09;100517.59;;;0.02;100.00
71306;BME280;59097;46.858;18.632;2023-03-04T02:54:40;100522.13;;;0.00;100.00
71306;BME280;59097;46.858;18.632;2023-03-04T02:57:10;100516.06;;;-0.01;100.00
71306;BME280;59097;46.858;18.632;2023-03-04T02:59:39;100528.03;;;-0.09;100.00
71306;BME280;59097;46.858;18.632;2023-03-04T03:02:09;100524.81;;;-0.02;100.00
71306;BME280;59097;46.858;18.632;2023-03-04T03:04:38;100521.41;;;-0.13;100.00
71306;BME280;59097;46.858;18.632;2023-03-04T03:07:35;100514.38;;;-0.13;100.00
71306;BME280;59097;46.858;18.632;2023-03-04T03:10:03;100518.06;;;-0.15;100.00
71306;BME280;59097;46.858;18.632;2023-03-04T03:12:29;100521.63;;;-0.16;100.00
71306;BME280;59097;46.858;18.632;2023-03-04T03:14:56;100481.13;;;-0.31;100.00
71306;BME280;59097;46.858;18.632;2023-03-04T03:17:22;100517.34;;;-0.17;100.00
71306;BME280;59097;46.858;18.632;2023-03-04T03:19:54;100508.16;;;0.44;100.00
71306;BME280;59097;46.858;18.632;2023-03-04T03:22:23;100508.16;;;0.44;100.00
71306;BME280;59097;46.858;18.632;2023-03-04T03:24:51;100508.13;;;-0.21;100.00
71306;BME280;59097;46.858;18.632;2023-03-04T03:27:18;100479.81;;;-0.37;100.00
71306;BME280;59097;46.858;18.632;2023-03-04T03:29:47;100515.59;;;-0.17;100.00
71306;BME280;59097;46.858;18.632;2023-03-04T03:32:15;100507.87;;;-0.29;100.00
71306;BME280;59097;46.858;18.632;2023-03-04T03:34:43;100494.37;;;-0.34;100.00
71306;BME280;59097;46.858;18.632;2023-03-04T03:37:12;100503.16;;;-0.24;100.00
71306;BME280;59097;46.858;18.632;2023-03-04T03:39:40;100505.06;;;-0.26;100.00
71306;BME280;59097;46.858;18.632;2023-03-04T03:42:14;100502.56;;;-0.17;100.00
71306;BME280;59097;46.858;18.632;2023-03-04T03:44:56;100499.00;;;-0.27;100.00
71306;BME280;59097;46.858;18.632;2023-03-04T03:47:22;100510.12;;;-0.25;100.00
71306;BME280;59097;46.858;18.632;2023-03-04T03:49:49;100512.50;;;-0.22;100.00
71306;BME280;59097;46.858;18.632;2023-03-04T03:52:15;100518.06;;;-0.15;100.00
71306;BME280;59097;46.858;18.632;2023-03-04T03:54:41;100503.03;;;-0.23;100.00
71306;BME280;59097;46.858;18.632;2023-03-04T03:57:08;100517.59;;;-0.09;100.00
71306;BME280;59097;46.858;18.632;2023-03-04T03:59:34;100517.25;;;-0.16;100.00
71306;BME280;59097;46.858;18.632;2023-03-04T04:02:06;100516.47;;;0.49;100.00
71306;BME280;59097;46.858;18.632;2023-03-04T04:04:35;100516.47;;;0.49;100.00
71306;BME280;59097;46.858;18.632;2023-03-04T04:07:03;100520.31;;;-0.22;100.00
71306;BME280;59097;46.858;18.632;2023-03-04T04:09:31;100519.84;;;-0.27;100.00
71306;BME280;59097;46.858;18.632;2023-03-04T04:11:59;100516.53;;;-0.29;100.00
71306;BME280;59097;46.858;18.632;2023-03-04T04:14:27;100525.66;;;-0.34;100.00
71306;BME280;59097;46.858;18.632;2023-03-04T04:16:55;100524.09;;;-0.37;100.00
71306;BME280;59097;46.858;18.632;2023-03-04T04:19:23;100511.66;;;-0.44;100.00
71306;BME280;59097;46.858;18.632;2023-03-04T04:22:07;100507.75;;;-0.50;100.00
71306;BME280;59097;46.858;18.632;2023-03-04T04:25:03;100509.25;;;-0.58;100.00
71306;BME280;59097;46.858;18.632;2023-03-04T04:27:45;100507.28;;;-0.55;100.00
71306;BME280;59097;46.858;18.632;2023-03-04T04:30:12;100503.22;;;-0.70;100.00
71306;BME280;59097;46.858;18.632;2023-03-04T04:32:38;100502.88;;;-0.66;100.00
71306;BME280;59097;46.858;18.632;2023-03-04T04:35:05;100505.13;;;-0.61;100.00
71306;BME280;59097;46.858;18.632;2023-03-04T04:37:31;100495.88;;;-0.65;100.00
71306;BME280;59097;46.858;18.632;2023-03-04T04:40:04;100489.41;;;-0.04;100.00
71306;BME280;59097;46.858;18.632;2023-03-04T04:42:33;100489.41;;;-0.04;100.00
71306;BME280;59097;46.858;18.632;2023-03-04T04:45:01;100497.31;;;-0.61;100.00
71306;BME280;59097;46.858;18.632;2023-03-04T04:47:29;100498.13;;;-0.72;100.00
71306;BME280;59097;46.858;18.632;2023-03-04T04:49:57;100490.66;;;-0.76;100.00
71306;BME280;59097;46.858;18.632;2023-03-04T04:52:25;100492.66;;;-0.80;100.00
71306;BME280;59097;46.858;18.632;2023-03-04T04:54:53;100466.25;;;-0.97;100.00
71306;BME280;59097;46.858;18.632;2023-03-04T04:57:21;100495.03;;;-0.77;100.00
71306;BME280;59097;46.858;18.632;2023-03-04T04:59:49;100495.84;;;-0.76;100.00
71306;BME280;59097;46.858;18.632;2023-03-04T05:02:47;100496.34;;;-0.82;100.00
71306;BME280;59097;46.858;18.632;2023-03-04T05:05:41;100497.25;;;-0.83;100.00
71306;BME280;59097;46.858;18.632;2023-03-04T05:08:07;100494.66;;;-0.83;100.00
71306;BME280;59097;46.858;18.632;2023-03-04T05:10:33;100499.03;;;-0.84;100.00
71306;BME280;59097;46.858;18.632;2023-03-04T05:12:59;100493.78;;;-1.06;100.00
71306;BME280;59097;46.858;18.632;2023-03-04T05:15:25;100507.91;;;-1.21;100.00
71306;BME280;59097;46.858;18.632;2023-03-04T05:17:58;100501.53;;;-0.82;100.00
71306;BME280;59097;46.858;18.632;2023-03-04T05:20:26;100501.53;;;-0.82;100.00
71306;BME280;59097;46.858;18.632;2023-03-04T05:22:54;100504.25;;;-1.42;100.00
71306;BME280;59097;46.858;18.632;2023-03-04T05:25:22;100500.22;;;-1.46;100.00
71306;BME280;59097;46.858;18.632;2023-03-04T05:27:51;100506.75;;;-1.41;100.00
71306;BME280;59097;46.858;18.632;2023-03-04T05:30:19;100502.69;;;-1.45;100.00
71306;BME280;59097;46.858;18.632;2023-03-04T05:32:47;100504.66;;;-1.36;100.00
71306;BME280;59097;46.858;18.632;2023-03-04T05:35:15;100498.78;;;-1.50;100.00
71306;BME280;59097;46.858;18.632;2023-03-04T05:37:58;100508.47;;;-1.29;100.00
71306;BME280;59097;46.858;18.632;2023-03-04T05:40:57;100511.06;;;-1.29;100.00
71306;BME280;59097;46.858;18.632;2023-03-04T05:43:25;100512.50;;;-1.24;100.00
71306;BME280;59097;46.858;18.632;2023-03-04T05:45:51;100504.59;;;-1.23;100.00
71306;BME280;59097;46.858;18.632;2023-03-04T05:48:17;100511.72;;;-1.14;100.00
71306;BME280;59097;46.858;18.632;2023-03-04T05:50:43;100515.88;;;-1.11;100.00
71306;BME280;59097;46.858;18.632;2023-03-04T05:53:16;100510.25;;;-0.37;100.00
71306;BME280;59097;46.858;18.632;2023-03-04T05:55:45;100510.25;;;-0.37;100.00
71306;BME280;59097;46.858;18.632;2023-03-04T05:58:14;100487.69;;;-1.17;100.00
71306;BME280;59097;46.858;18.632;2023-03-04T06:00:43;100522.63;;;-1.33;100.00
71306;BME280;59097;46.858;18.632;2023-03-04T06:03:20;100527.38;;;-1.27;100.00
71306;BME280;59097;46.858;18.632;2023-03-04T06:05:49;100528.31;;;-1.04;100.00
71306;BME280;59097;46.858;18.632;2023-03-04T06:08:17;100527.78;;;-0.85;100.00
71306;BME280;59097;46.858;18.632;2023-03-04T06:10:45;100529.00;;;-0.78;100.00
71306;BME280;59097;46.858;18.632;2023-03-04T06:13:13;100525.00;;;-0.60;100.00
71306;BME280;59097;46.858;18.632;2023-03-04T06:16:10;100531.44;;;-0.42;100.00
71306;BME280;59097;46.858;18.632;2023-03-04T06:18:52;100530.75;;;-0.22;100.00
71306;BME280;59097;46.858;18.632;2023-03-04T06:21:18;100526.00;;;-0.17;100.00
71306;BME280;59097;46.858;18.632;2023-03-04T06:23:45;100519.63;;;-0.02;100.00
71306;BME280;59097;46.858;18.632;2023-03-04T06:26:12;100426.28;;;-0.63;100.00
71306;BME280;59097;46.858;18.632;2023-03-04T06:28:41;100529.31;;;0.19;100.00
71306;BME280;59097;46.858;18.632;2023-03-04T06:31:14;100536.41;;;1.13;100.00
71306;BME280;59097;46.858;18.632;2023-03-04T06:33:42;100536.41;;;1.13;100.00
71306;BME280;59097;46.858;18.632;2023-03-04T06:36:10;100547.84;;;0.70;100.00
71306;BME280;59097;46.858;18.632;2023-03-04T06:38:38;100549.59;;;0.80;100.00
71306;BME280;59097;46.858;18.632;2023-03-04T06:41:11;100538.81;;;0.74;100.00
71306;BME280;59097;46.858;18.632;2023-03-04T06:43:39;100543.44;;;0.70;100.00
71306;BME280;59097;46.858;18.632;2023-03-04T06:46:08;100548.09;;;0.98;100.00
71306;BME280;59097;46.858;18.632;2023-03-04T06:48:36;100553.13;;;1.22;100.00
71306;BME280;59097;46.858;18.632;2023-03-04T06:51:19;100556.25;;;1.57;100.00
71306;BME280;59097;46.858;18.632;2023-03-04T06:54:00;100547.81;;;1.54;100.00
71306;BME280;59097;46.858;18.632;2023-03-04T06:56:27;100546.72;;;1.56;100.00
71306;BME280;59097;46.858;18.632;2023-03-04T06:58:53;100533.59;;;1.67;100.00
71306;BME280;59097;46.858;18.632;2023-03-04T07:01:27;100547.66;;;1.97;100.00
71306;BME280;59097;46.858;18.632;2023-03-04T07:03:54;100545.87;;;2.37;99.91
71306;BME280;59097;46.858;18.632;2023-03-04T07:06:27;100540.53;;;3.72;93.90
71306;BME280;59097;46.858;18.632;2023-03-04T07:08:57;100540.53;;;3.72;93.90
71306;BME280;59097;46.858;18.632;2023-03-04T07:11:25;100541.69;;;3.22;92.74
71306;BME280;59097;46.858;18.632;2023-03-04T07:13:53;100519.19;;;3.39;91.13
71306;BME280;59097;46.858;18.632;2023-03-04T07:16:22;100533.50;;;3.73;90.69
71306;BME280;59097;46.858;18.632;2023-03-04T07:18:53;100531.34;;;3.86;89.61
71306;BME280;59097;46.858;18.632;2023-03-04T07:21:22;100542.25;;;4.28;89.28
71306;BME280;59097;46.858;18.632;2023-03-04T07:23:50;100547.31;;;5.01;84.09
71306;BME280;59097;46.858;18.632;2023-03-04T07:26:32;100547.00;;;4.87;83.31
71306;BME280;59097;46.858;18.632;2023-03-04T07:29:14;100548.13;;;4.84;85.78
71306;BME280;59097;46.858;18.632;2023-03-04T07:31:40;100547.00;;;4.87;85.79
71306;BME280;59097;46.858;18.632;2023-03-04T07:34:08;100546.72;;;4.90;83.40
71306;BME280;59097;46.858;18.632;2023-03-04T07:36:35;100546.47;;;5.01;84.53
71306;BME280;59097;46.858;18.632;2023-03-04T07:39:02;100539.13;;;5.04;82.56
71306;BME280;59097;46.858;18.632;2023-03-04T07:41:29;100540.72;;;5.15;81.91
71306;BME280;59097;46.858;18.632;2023-03-04T07:44:04;100529.84;;;6.05;78.54
71306;BME280;59097;46.858;18.632;2023-03-04T07:46:34;100529.84;;;6.05;78.54
71306;BME280;59097;46.858;18.632;2023-03-04T07:49:02;100540.72;;;5.58;80.92
71306;BME280;59097;46.858;18.632;2023-03-04T07:51:30;100537.25;;;5.58;80.18
71306;BME280;59097;46.858;18.632;2023-03-04T07:54:00;100449.19;;;5.36;79.22
71306;BME280;59097;46.858;18.632;2023-03-04T07:56:31;100535.44;;;6.02;79.43
71306;BME280;59097;46.858;18.632;2023-03-04T07:59:02;100536.09;;;6.04;78.72
71306;BME280;59097;46.858;18.632;2023-03-04T08:01:36;100523.28;;;6.09;79.12
71306;BME280;59097;46.858;18.632;2023-03-04T08:04:12;100446.91;;;5.67;78.07
71306;BME280;59097;46.858;18.632;2023-03-04T08:07:09;100542.31;;;6.28;77.66
71306;BME280;59097;46.858;18.632;2023-03-04T08:09:51;100507.87;;;6.22;77.90
71306;BME280;59097;46.858;18.632;2023-03-04T08:12:17;100530.88;;;6.54;76.24
71306;BME280;59097;46.858;18.632;2023-03-04T08:14:44;100518.00;;;6.43;75.57
71306;BME280;59097;46.858;18.632;2023-03-04T08:17:10;100505.09;;;6.31;73.18
71306;BME280;59097;46.858;18.632;2023-03-04T08:19:39;100530.09;;;6.69;74.41
71306;BME280;59097;46.858;18.632;2023-03-04T08:22:12;100518.63;;;7.51;71.99
71306;BME280;59097;46.858;18.632;2023-03-04T08:24:40;100518.63;;;7.51;71.99
71306;BME280;59097;46.858;18.632;2023-03-04T08:27:08;100527.84;;;7.07;72.68
71306;BME280;59097;46.858;18.632;2023-03-04T08:29:36;100514.16;;;7.11;73.11
71306;BME280;59097;46.858;18.632;2023-03-04T08:32:04;100528.19;;;7.20;72.21
71306;BME280;59097;46.858;18.632;2023-03-04T08:34:32;100524.22;;;7.32;72.01
71306;BME280;59097;46.858;18.632;2023-03-04T08:37:00;100526.69;;;7.49;71.95
71306;BME280;59097;46.858;18.632;2023-03-04T08:39:28;100524.69;;;7.59;70.69
71306;BME280;59097;46.858;18.632;2023-03-04T08:41:57;100521.53;;;7.64;69.27
71306;BME280;59097;46.858;18.632;2023-03-04T08:45:09;100514.13;;;7.51;66.02
71306;BME280;59097;46.858;18.632;2023-03-04T08:48:05;100515.19;;;8.05;66.11
71306;BME280;59097;46.858;18.632;2023-03-04T08:50:31;100516.31;;;8.27;65.27
71306;BME280;59097;46.858;18.632;2023-03-04T08:52:58;100506.13;;;8.47;63.94
71306;BME280;59097;46.858;18.632;2023-03-04T08:55:24;100513.78;;;9.70;62.41
71306;BME280;59097;46.858;18.632;2023-03-04T08:57:50;100506.19;;;10.90;52.20
71306;BME280;59097;46.858;18.632;2023-03-04T09:00:22;100502.47;;;14.34;48.35
71306;BME280;59097;46.858;18.632;2023-03-04T09:02:51;100502.47;;;14.34;48.35
71306;BME280;59097;46.858;18.632;2023-03-04T09:05:19;100508.91;;;13.02;48.23
71306;BME280;59097;46.858;18.632;2023-03-04T09:07:47;100505.88;;;13.12;45.97
71306;BME280;59097;46.858;18.632;2023-03-04T09:10:15;100499.16;;;14.39;44.88
71306;BME280;59097;46.858;18.632;2023-03-04T09:12:43;100501.09;;;12.88;47.84
71306;BME280;59097;46.858;18.632;2023-03-04T09:15:12;100493.66;;;14.21;44.32
71306;BME280;59097;46.858;18.632;2023-03-04T09:17:40;100489.38;;;14.20;42.77
71306;BME280;59097;46.858;18.632;2023-03-04T09:20:10;100494.22;;;13.46;46.04
71306;BME280;59097;46.858;18.632;2023-03-04T09:23:08;100493.72;;;12.77;45.87
71306;BME280;59097;46.858;18.632;2023-03-04T09:26:25;100488.84;;;13.00;46.88
71306;BME280;59097;46.858;18.632;2023-03-04T09:28:55;100494.81;;;13.54;44.60
71306;BME280;59097;46.858;18.632;2023-03-04T09:35:17;100496.47;;;13.22;46.12
71306;BME280;59097;46.858;18.632;2023-03-04T09:37:43;100494.59;;;13.82;46.12
71306;BME280;59097;46.858;18.632;2023-03-04T09:40:20;100493.78;;;13.62;47.88
71306;BME280;59097;46.858;18.632;2023-03-04T09:42:53;100493.78;;;13.62;47.88
71306;BME280;59097;46.858;18.632;2023-03-04T09:45:28;100486.00;;;13.14;48.76
71306;BME280;59097;46.858;18.632;2023-03-04T09:47:58;100488.37;;;12.77;49.59
71306;BME280;59097;46.858;18.632;2023-03-04T09:50:28;100492.78;;;11.19;53.27
71306;BME280;59097;46.858;18.632;2023-03-04T09:55:41;100482.91;;;10.50;57.68
71306;BME280;59097;46.858;18.632;2023-03-04T09:58:27;100483.16;;;10.19;59.41
71306;BME280;59097;46.858;18.632;2023-03-04T10:03:57;100470.78;;;10.11;60.48
71306;BME280;59097;46.858;18.632;2023-03-04T10:06:26;100467.94;;;10.28;59.74
71306;BME280;59097;46.858;18.632;2023-03-04T10:09:04;100456.81;;;10.03;59.95
71306;BME280;59097;46.858;18.632;2023-03-04T10:16:47;100454.03;;;11.04;59.31
71306;BME280;59097;46.858;18.632;2023-03-04T10:24:56;100443.06;;;10.64;60.13
71306;BME280;59097;46.858;18.632;2023-03-04T10:27:25;100433.53;;;10.70;60.49
71306;BME280;59097;46.858;18.632;2023-03-04T10:33:20;100415.97;;;10.69;60.08
71306;BME280;59097;46.858;18.632;2023-03-04T10:35:51;100429.38;;;10.82;59.27
71306;BME280;59097;46.858;18.632;2023-03-04T10:38:19;100424.22;;;11.02;60.20
71306;BME280;59097;46.858;18.632;2023-03-04T10:40:52;100417.47;;;11.82;57.39
71306;BME280;59097;46.858;18.632;2023-03-04T10:43:21;100417.47;;;11.82;57.39
71306;BME280;59097;46.858;18.632;2023-03-04T10:45:54;100413.44;;;11.03;59.35
71306;BME280;59097;46.858;18.632;2023-03-04T10:48:25;100405.47;;;11.31;60.38
71306;BME280;59097;46.858;18.632;2023-03-04T10:50:54;100404.88;;;11.35;58.16
71306;BME280;59097;46.858;18.632;2023-03-04T10:53:40;100389.31;;;11.26;56.95
71306;BME280;59097;46.858;18.632;2023-03-04T10:56:38;100380.47;;;11.47;57.47
71306;BME280;59097;46.858;18.632;2023-03-04T11:02:42;100380.25;;;11.48;53.21
71306;BME280;59097;46.858;18.632;2023-03-04T11:05:38;100380.31;;;11.61;54.71
71306;BME280;59097;46.858;18.632;2023-03-04T11:08:05;100376.19;;;11.52;53.86
71306;BME280;59097;46.858;18.632;2023-03-04T11:10:38;100369.22;;;11.45;52.69
71306;BME280;59097;46.858;18.632;2023-03-04T11:13:21;100365.59;;;11.52;52.66
71306;BME280;59097;46.858;18.632;2023-03-04T11:15:58;100366.00;;;11.56;52.09
71306;BME280;59097;46.858;18.632;2023-03-04T11:18:41;100351.97;;;12.22;51.28
71306;BME280;59097;46.858;18.632;2023-03-04T11:21:16;100351.97;;;12.22;51.28
71306;BME280;59097;46.858;18.632;2023-03-04T11:26:23;100341.78;;;11.72;51.77
71306;BME280;59097;46.858;18.632;2023-03-04T11:31:39;100333.09;;;11.57;51.62
71306;BME280;59097;46.858;18.632;2023-03-04T11:34:19;100319.56;;;11.45;51.92
71306;BME280;59097;46.858;18.632;2023-03-04T11:37:03;100330.78;;;11.41;52.81
71306;BME280;59097;46.858;18.632;2023-03-04T11:39:54;100323.09;;;11.52;52.54
71306;BME280;59097;46.858;18.632;2023-03-04T11:43:15;100317.72;;;11.46;52.18
71306;BME280;59097;46.858;18.632;2023-03-04T11:48:44;100312.78;;;11.36;51.09
71306;BME280;59097;46.858;18.632;2023-03-04T11:53:55;100311.13;;;11.35;52.47
71306;BME280;59097;46.858;18.632;2023-03-04T11:56:34;100301.59;;;11.94;50.70
71306;BME280;59097;46.858;18.632;2023-03-04T12:02:02;100291.09;;;11.32;50.92
71306;BME280;59097;46.858;18.632;2023-03-04T12:11:40;100279.94;;;11.50;52.78
71306;BME280;59097;46.858;18.632;2023-03-04T12:19:54;100272.59;;;12.13;50.96
71306;BME280;59097;46.858;18.632;2023-03-04T12:45:48;100240.69;;;12.06;50.05
71306;BME280;59097;46.858;18.632;2023-03-04T12:48:29;100240.69;;;12.06;50.05
71306;BME280;59097;46.858;18.632;2023-03-04T12:54:28;100215.78;;;11.40;51.18
71306;BME280;59097;46.858;18.632;2023-03-04T12:57:03;100235.00;;;11.49;51.24
71306;BME280;59097;46.858;18.632;2023-03-04T12:59:40;100236.66;;;11.50;50.94
71306;BME280;59097;46.858;18.632;2023-03-04T13:11:00;100212.12;;;11.48;48.96
71306;BME280;59097;46.858;18.632;2023-03-04T13:13:35;100212.94;;;11.42;51.08
71306;BME280;59097;46.858;18.632;2023-03-04T13:18:43;100206.94;;;11.87;49.94
71306;BME280;59097;46.858;18.632;2023-03-04T13:23:40;100200.38;;;11.22;50.03
71306;BME280;59097;46.858;18.632;2023-03-04T13:26:15;100202.66;;;11.25;50.46
71306;BME280;59097;46.858;18.632;2023-03-04T13:28:45;100201.81;;;11.25;50.43
71306;BME280;59097;46.858;18.632;2023-03-04T13:31:22;100198.34;;;11.24;50.92
71306;BME280;59097;46.858;18.632;2023-03-04T13:33:55;100202.81;;;11.17;48.21
71306;BME280;59097;46.858;18.632;2023-03-04T13:36:32;100196.28;;;11.13;49.51
71306;BME280;59097;46.858;18.632;2023-03-04T13:39:30;100190.16;;;11.19;50.84
71306;BME280;59097;46.858;18.632;2023-03-04T13:41:57;100196.28;;;11.20;50.13
71306;BME280;59097;46.858;18.632;2023-03-04T13:44:33;100186.06;;;11.17;50.46
71306;BME280;59097;46.858;18.632;2023-03-04T13:47:17;100189.37;;;11.25;51.43
71306;BME280;59097;46.858;18.632;2023-03-04T13:49:45;100187.50;;;11.13;49.85
71306;BME280;59097;46.858;18.632;2023-03-04T13:52:37;100182.34;;;11.05;50.53
71306;BME280;59097;46.858;18.632;2023-03-04T13:55:34;100175.19;;;11.59;49.27
71306;BME280;59097;46.858;18.632;2023-03-04T13:58:36;100175.19;;;11.59;49.27
71306;BME280;59097;46.858;18.632;2023-03-04T14:01:17;100178.66;;;10.99;49.85
71306;BME280;59097;46.858;18.632;2023-03-04T14:03:49;100170.47;;;10.94;49.73
71306;BME280;59097;46.858;18.632;2023-03-04T14:06:28;100167.62;;;10.96;50.15
71306;BME280;59097;46.858;18.632;2023-03-04T14:09:32;100173.50;;;10.91;50.65
71306;BME280;59097;46.858;18.632;2023-03-04T14:12:15;100163.50;;;10.87;50.00
71306;BME280;59097;46.858;18.632;2023-03-04T14:14:49;100160.59;;;10.82;51.10
71306;BME280;59097;46.858;18.632;2023-03-04T14:17:19;100158.53;;;10.77;51.38
71306;BME280;59097;46.858;18.632;2023-03-04T14:19:47;100149.00;;;10.89;50.96
71306;BME280;59097;46.858;18.632;2023-03-04T14:22:26;100156.56;;;10.86;51.42
71306;BME280;59097;46.858;18.632;2023-03-04T14:28:08;100135.28;;;11.33;51.48
71306;BME280;59097;46.858;18.632;2023-03-04T14:30:39;100135.59;;;10.63;52.51
71306;BME280;59097;46.858;18.632;2023-03-04T14:33:18;100141.56;;;10.65;53.34
71306;BME280;59097;46.858;18.632;2023-03-04T14:35:50;100135.00;;;10.61;51.61
71306;BME280;59097;46.858;18.632;2023-03-04T14:38:26;100133.19;;;10.68;49.58
71306;BME280;59097;46.858;18.632;2023-03-04T14:41:14;100128.69;;;10.62;51.51
71306;BME280;59097;46.858;18.632;2023-03-04T14:44:15;100130.72;;;10.60;51.12
71306;BME280;59097;46.858;18.632;2023-03-04T14:49:55;100121.72;;;10.61;50.08
71306;BME280;59097;46.858;18.632;2023-03-04T14:52:35;100123.53;;;10.54;50.71
71306;BME280;59097;46.858;18.632;2023-03-04T14:55:20;100115.16;;;10.50;52.38